Airfield :
LOGIN :

Register | Disclaimer

   EN    FR    IT 

 










Legend :    VFR   Marginal VFR   IFR   Intensive IFR   Very Intensive IFR
Visi :
Ceiling :
>= 8 km
>= 3000ft
5 to 8 km
1000 to 3000 ft
1500m to 5 km
500 to 1000 ft
800 to 1500m
200 to 500 ft
< 800m
< 200 ft
Symbols :   Thunderstorms  Fog  Heavy snow  Heavy precipitations  Wind > 20 kt
SIGMETs :     Misc.  Thunderstorms  Icing  Turbulence  Mountain Waves  Volcanic Ashes






- Airport Elevation : 266 ft
- IATA code : NCL


EGNT - Newcastle

CURRENT METAR :
  • 270450Z 23005KT 200V270 9999 BKN011 02/01 Q0995

EXPIRED METARs :
  • 270420Z 26005KT 220V290 9999 BKN011 02/01 Q0995
  • 270350Z 25009KT 9999 BKN013 02/01 Q0995
  • 270320Z 23005KT 200V260 9999 BKN015 02/01 Q0995
  • 270250Z 20005KT 9999 BKN018 02/01 Q0996

TAF AMD TAF EGNT
Valid from the 27 at 04:00 until the 28 at 00:00 UTC


270437Z 2704/2724 25008KT 9999 SCT020
TEMPO 2704/2709 BKN012
PROB40
TEMPO 2711/2718 29017G27KT
ATIS : +44 191 214 3400



MET'MAP, your aeronautical weather chart ! - Copyright ORBIFLY December 2007 - Disclaimer

ORBIFLY MET'MAP TEAM :

Programming & Development : Alexandra Zaïnal
Concept & original design : Baudouin d'Aumeries
Assistance for programming : Marc-Olivier Méhu
Technical & hardware support : Manuel Goepfert

Contact : metmap@orbifly.com




SOURCES & CREDITS :

   NOAA